createdAt,value
2022-08-27T00:00:30.383Z,40.64
2022-08-27T00:03:00.099Z,40.58
2022-08-27T00:05:29.617Z,40.69
2022-08-27T00:07:59.195Z,40.69
2022-08-27T00:10:29.249Z,40.73
2022-08-27T00:12:58.980Z,40.45
2022-08-27T00:15:28.782Z,40.13
2022-08-27T00:17:58.548Z,40.25
2022-08-27T00:20:29.024Z,40.16
2022-08-27T00:22:58.643Z,40.28
2022-08-27T00:25:28.348Z,40.33
2022-08-27T00:27:58.333Z,40.13
2022-08-27T00:30:30.934Z,39.89
2022-08-27T00:32:59.798Z,40.06
2022-08-27T00:35:30.929Z,39.80
2022-08-27T00:38:01.084Z,40.24
2022-08-27T00:40:30.881Z,40.08
2022-08-27T00:43:02.348Z,39.88
2022-08-27T00:45:32.976Z,39.84
2022-08-27T00:48:02.554Z,39.74
2022-08-27T00:50:40.068Z,39.44
2022-08-27T00:53:23.060Z,39.64
2022-08-27T00:55:55.862Z,39.74
2022-08-27T00:58:34.558Z,39.15
2022-08-27T01:01:04.326Z,39.70
2022-08-27T01:03:36.515Z,39.30
2022-08-27T01:06:06.784Z,39.11
2022-08-27T01:08:38.800Z,38.99
2022-08-27T01:11:08.749Z,39.12
2022-08-27T01:13:54.434Z,39.40
2022-08-27T01:16:09.922Z,39.47
2022-08-27T01:18:40.014Z,39.48
2022-08-27T01:21:23.082Z,39.40
2022-08-27T01:24:12.064Z,39.33
2022-08-27T01:26:45.252Z,39.69
2022-08-27T01:29:15.290Z,39.30
2022-08-27T01:31:45.195Z,39.94
2022-08-27T01:34:15.487Z,39.72
2022-08-27T01:36:49.688Z,39.69
2022-08-27T01:39:21.558Z,39.82
2022-08-27T01:41:53.410Z,39.88
2022-08-27T01:44:24.063Z,39.96
2022-08-27T01:46:54.160Z,39.55
2022-08-27T01:49:24.347Z,40.12
2022-08-27T01:52:16.537Z,40.20
2022-08-27T01:54:46.166Z,39.78
2022-08-27T01:57:16.015Z,39.81
2022-08-27T01:59:47.051Z,39.86
2022-08-27T02:02:18.133Z,39.93
2022-08-27T02:04:47.670Z,39.99
2022-08-27T02:07:17.204Z,39.52
2022-08-27T02:09:46.832Z,39.62
2022-08-27T02:12:16.391Z,40.54
2022-08-27T02:14:46.234Z,40.15
2022-08-27T02:17:15.901Z,40.00
2022-08-27T02:19:47.071Z,40.07
2022-08-27T02:22:17.716Z,40.19
2022-08-27T02:24:47.410Z,40.14
2022-08-27T02:27:19.106Z,40.81
2022-08-27T02:29:52.821Z,40.72
2022-08-27T02:32:32.318Z,40.07
2022-08-27T02:34:58.156Z,39.61
2022-08-27T02:37:29.155Z,39.33
2022-08-27T02:39:58.771Z,40.19
2022-08-27T02:42:30.625Z,40.25
2022-08-27T02:45:00.157Z,41.06
2022-08-27T02:47:33.990Z,40.92
2022-08-27T02:50:05.869Z,40.81
2022-08-27T02:52:36.107Z,41.09
2022-08-27T02:55:06.152Z,41.10
2022-08-27T02:57:36.466Z,40.50
2022-08-27T03:00:14.363Z,41.89
2022-08-27T03:02:44.327Z,41.83
2022-08-27T03:05:14.403Z,41.50
2022-08-27T03:07:45.492Z,41.32
2022-08-27T03:10:16.239Z,41.25
2022-08-27T03:12:45.865Z,41.23
2022-08-27T03:15:17.943Z,41.21
2022-08-27T03:18:06.176Z,41.22
2022-08-27T03:20:41.535Z,41.24
2022-08-27T03:23:11.386Z,41.28
2022-08-27T03:25:41.049Z,41.33
2022-08-27T03:28:10.772Z,41.38
2022-08-27T03:30:42.716Z,41.40
2022-08-27T03:33:12.550Z,41.47
2022-08-27T03:35:47.894Z,41.52
2022-08-27T03:38:16.824Z,41.57
2022-08-27T03:40:46.529Z,41.64
2022-08-27T03:44:37.855Z,41.67
2022-08-27T03:46:02.001Z,41.73
2022-08-27T03:48:32.112Z,41.77
2022-08-27T03:51:01.772Z,41.88
2022-08-27T03:53:31.435Z,41.97
2022-08-27T03:56:02.670Z,42.00
2022-08-27T03:58:33.676Z,42.00
2022-08-27T04:01:03.220Z,42.00
2022-08-27T04:03:32.963Z,42.01
2022-08-27T04:06:04.266Z,42.02
2022-08-27T04:08:36.305Z,42.02
2022-08-27T04:11:09.169Z,42.05
2022-08-27T04:13:39.020Z,42.08
2022-08-27T04:16:09.021Z,42.08
2022-08-27T04:18:40.158Z,42.08
2022-08-27T04:21:12.172Z,42.09
2022-08-27T04:23:42.164Z,42.10
2022-08-27T04:26:12.210Z,42.11
2022-08-27T04:28:41.829Z,42.14
2022-08-27T04:31:16.858Z,42.15
2022-08-27T04:33:50.842Z,42.17
2022-08-27T04:36:16.196Z,42.17
2022-08-27T04:38:45.829Z,42.17
2022-08-27T04:41:23.198Z,42.20
2022-08-27T04:43:57.913Z,42.20
2022-08-27T04:46:29.970Z,42.23
2022-08-27T04:49:02.720Z,42.35
2022-08-27T04:51:34.499Z,42.40
2022-08-27T04:54:04.765Z,42.52
2022-08-27T04:56:34.477Z,42.51
2022-08-27T04:59:05.044Z,42.50
2022-08-27T05:01:34.887Z,42.44
2022-08-27T05:04:05.035Z,42.44
2022-08-27T05:06:34.933Z,42.43
2022-08-27T05:09:04.754Z,42.43
2022-08-27T05:11:35.548Z,42.44
2022-08-27T05:14:07.257Z,42.45
2022-08-27T05:16:39.646Z,42.45
2022-08-27T05:19:11.786Z,42.45
2022-08-27T05:21:48.967Z,42.47
2022-08-27T05:24:18.610Z,42.49
2022-08-27T05:26:48.311Z,42.50
2022-08-27T05:29:18.159Z,42.51
2022-08-27T05:31:49.190Z,42.68
2022-08-27T05:34:26.294Z,41.93
2022-08-27T05:36:50.166Z,42.12
2022-08-27T05:39:19.698Z,42.65
2022-08-27T05:41:49.382Z,42.45
2022-08-27T05:44:40.257Z,42.40
2022-08-27T05:46:50.343Z,42.38
2022-08-27T05:49:20.732Z,42.38
2022-08-27T05:51:50.368Z,42.39
2022-08-27T05:54:22.763Z,42.43
2022-08-27T05:56:52.465Z,42.49
2022-08-27T05:59:39.963Z,42.49
2022-08-27T06:02:11.605Z,42.50
2022-08-27T06:04:41.301Z,42.52
2022-08-27T06:07:11.640Z,42.51
2022-08-27T06:09:41.337Z,42.52
2022-08-27T06:12:11.182Z,42.55
2022-08-27T06:14:41.084Z,42.56
2022-08-27T06:17:10.625Z,42.59
2022-08-27T06:19:41.486Z,42.60
2022-08-27T06:22:11.209Z,42.63
2022-08-27T06:24:44.164Z,42.82
2022-08-27T06:27:15.249Z,41.74
2022-08-27T06:29:44.930Z,41.93
2022-08-27T06:32:15.602Z,42.66
2022-08-27T06:34:45.580Z,42.64
2022-08-27T06:37:15.115Z,42.58
2022-08-27T06:39:44.758Z,42.61
2022-08-27T06:42:14.519Z,42.60
2022-08-27T06:44:44.241Z,42.62
2022-08-27T06:47:15.347Z,42.65
2022-08-27T06:49:48.154Z,42.67
2022-08-27T06:52:17.804Z,42.69
2022-08-27T06:54:47.379Z,42.71
2022-08-27T06:57:17.002Z,42.72
2022-08-27T06:59:46.758Z,42.72
2022-08-27T07:02:16.494Z,42.73
2022-08-27T07:04:46.356Z,42.82
2022-08-27T07:07:27.943Z,42.91
2022-08-27T07:09:50.839Z,42.93
2022-08-27T07:12:22.043Z,42.88
2022-08-27T07:14:53.802Z,42.87
2022-08-27T07:17:23.673Z,42.88
2022-08-27T07:19:55.081Z,42.89
2022-08-27T07:22:25.717Z,42.91
2022-08-27T07:24:56.795Z,42.92
2022-08-27T07:27:26.883Z,42.93
2022-08-27T07:29:56.887Z,42.50
2022-08-27T07:32:31.244Z,42.95
2022-08-27T07:34:58.357Z,43.15
2022-08-27T07:37:32.476Z,43.08
2022-08-27T07:39:59.414Z,43.01
2022-08-27T07:42:46.313Z,43.06
2022-08-27T07:45:17.435Z,43.06
2022-08-27T07:47:50.303Z,43.07
2022-08-27T07:50:20.345Z,43.09
2022-08-27T07:52:50.152Z,43.08
2022-08-27T07:55:19.926Z,43.10
2022-08-27T07:57:50.896Z,43.12
2022-08-27T08:00:26.005Z,43.15
2022-08-27T08:02:56.136Z,43.17
2022-08-27T08:05:27.741Z,43.16
2022-08-27T08:08:00.306Z,43.17
2022-08-27T08:10:33.584Z,43.19
2022-08-27T08:13:01.192Z,43.19
2022-08-27T08:15:30.845Z,43.21
2022-08-27T08:18:00.671Z,43.21
2022-08-27T08:20:54.326Z,43.23
2022-08-27T08:23:01.738Z,43.23
2022-08-27T08:25:37.487Z,43.27
2022-08-27T08:28:02.942Z,43.26
2022-08-27T08:30:33.172Z,43.27
2022-08-27T08:33:03.884Z,43.39
2022-08-27T08:35:34.977Z,42.46
2022-08-27T08:38:04.976Z,43.23
2022-08-27T08:40:37.130Z,43.38
2022-08-27T08:43:07.546Z,43.38
2022-08-27T08:45:37.367Z,43.40
2022-08-27T08:48:16.323Z,43.44
2022-08-27T08:50:58.957Z,43.44
2022-08-27T08:53:34.770Z,43.44
2022-08-27T08:56:05.103Z,43.44
2022-08-27T08:58:49.895Z,43.44
2022-08-27T09:01:21.411Z,43.46
2022-08-27T09:03:59.850Z,43.45
2022-08-27T09:06:44.660Z,43.47
2022-08-27T09:09:25.168Z,43.47
2022-08-27T09:12:12.657Z,43.49
2022-08-27T09:15:05.423Z,43.53
2022-08-27T09:17:37.542Z,43.54
2022-08-27T09:20:13.047Z,43.48
2022-08-27T09:23:01.525Z,43.48
2022-08-27T09:25:35.963Z,43.58
2022-08-27T09:28:33.679Z,43.59
2022-08-27T09:31:06.229Z,43.60
2022-08-27T09:33:44.472Z,43.64
2022-08-27T09:36:09.051Z,43.63
2022-08-27T09:38:38.638Z,43.65
2022-08-27T09:41:09.606Z,43.64
2022-08-27T09:43:47.325Z,43.67
2022-08-27T09:46:22.348Z,43.66
2022-08-27T09:48:53.611Z,43.70
2022-08-27T09:51:29.425Z,43.74
2022-08-27T09:54:02.084Z,43.72
2022-08-27T09:56:33.004Z,43.71
2022-08-27T09:59:10.994Z,43.75
2022-08-27T10:02:01.754Z,43.74
2022-08-27T10:04:53.443Z,43.75
2022-08-27T10:07:47.703Z,42.94
2022-08-27T10:10:40.784Z,42.46
2022-08-27T10:13:22.353Z,43.56
2022-08-27T10:15:57.618Z,43.55
2022-08-27T10:18:31.869Z,43.55
2022-08-27T10:21:15.534Z,43.57
2022-08-27T10:23:46.825Z,43.66
2022-08-27T10:26:35.862Z,43.74
2022-08-27T10:29:23.062Z,43.74
2022-08-27T10:32:07.597Z,43.80
2022-08-27T10:34:48.905Z,43.75
2022-08-27T10:37:40.221Z,43.55
2022-08-27T10:40:09.908Z,43.54
2022-08-27T10:42:48.309Z,43.54
2022-08-27T10:45:31.677Z,43.58
2022-08-27T10:48:10.546Z,43.67
2022-08-27T10:50:43.204Z,43.68
2022-08-27T10:53:17.956Z,43.58
2022-08-27T10:55:51.521Z,43.40
2022-08-27T10:58:22.057Z,43.33
2022-08-27T11:01:00.526Z,43.31
2022-08-27T11:03:47.910Z,43.33
2022-08-27T11:06:24.862Z,43.40
2022-08-27T11:09:07.795Z,43.25
2022-08-27T11:12:12.806Z,43.18
2022-08-27T11:14:16.153Z,43.19
2022-08-27T11:16:48.911Z,43.21
2022-08-27T11:19:39.432Z,43.28
2022-08-27T11:22:20.407Z,43.17
2022-08-27T11:24:58.521Z,43.15
2022-08-27T11:27:31.000Z,43.12
2022-08-27T11:30:06.707Z,43.05
2022-08-27T11:32:50.955Z,43.32
2022-08-27T11:35:26.577Z,43.29
2022-08-27T11:38:12.227Z,43.18
2022-08-27T11:40:50.741Z,43.20
2022-08-27T11:43:22.600Z,43.27
2022-08-27T11:46:01.375Z,43.15
2022-08-27T11:48:45.522Z,43.06
2022-08-27T11:51:35.066Z,43.00
2022-08-27T11:54:09.261Z,43.03
2022-08-27T11:56:40.990Z,43.06
2022-08-27T11:59:24.793Z,43.01
2022-08-27T12:01:55.968Z,42.98
2022-08-27T12:04:29.404Z,43.01
2022-08-27T12:07:21.632Z,42.97
2022-08-27T12:10:02.915Z,42.97
2022-08-27T12:12:38.141Z,42.95
2022-08-27T12:15:13.522Z,42.93
2022-08-27T12:17:46.199Z,42.91
2022-08-27T12:20:27.712Z,42.93
2022-08-27T12:23:39.512Z,42.85
2022-08-27T12:26:38.810Z,42.86
2022-08-27T12:29:40.985Z,42.88
2022-08-27T12:32:32.843Z,42.86
2022-08-27T12:35:05.299Z,42.88
2022-08-27T12:37:38.350Z,42.88
2022-08-27T12:40:28.443Z,42.88
2022-08-27T12:43:17.852Z,42.87
2022-08-27T12:46:06.965Z,42.89
2022-08-27T12:48:51.503Z,42.90
2022-08-27T12:51:28.926Z,42.52
2022-08-27T12:54:35.348Z,41.83
2022-08-27T12:57:13.336Z,41.58
2022-08-27T13:00:02.303Z,41.73
2022-08-27T13:02:46.646Z,41.74
2022-08-27T13:05:16.305Z,40.91
2022-08-27T13:07:46.972Z,40.20
2022-08-27T13:10:22.465Z,39.86
2022-08-27T13:12:56.000Z,39.71
2022-08-27T13:15:27.329Z,40.44
2022-08-27T13:17:57.197Z,41.76
2022-08-27T13:20:29.267Z,41.73
2022-08-27T13:22:59.376Z,41.84
2022-08-27T13:25:34.160Z,42.62
2022-08-27T13:28:07.385Z,41.35
2022-08-27T13:30:38.093Z,43.10
2022-08-27T13:33:08.400Z,42.64
2022-08-27T13:35:38.463Z,42.49
2022-08-27T13:38:08.012Z,42.58
2022-08-27T13:40:42.849Z,42.29
2022-08-27T13:43:13.200Z,43.58
2022-08-27T13:45:43.075Z,43.25
2022-08-27T13:48:13.487Z,42.62
2022-08-27T13:50:45.959Z,42.54
2022-08-27T13:53:33.618Z,42.55
2022-08-27T13:56:03.516Z,43.42
2022-08-27T13:58:34.447Z,43.26
2022-08-27T14:01:12.979Z,43.57
2022-08-27T14:03:50.827Z,43.34
2022-08-27T14:06:31.592Z,43.34
2022-08-27T14:09:02.252Z,43.47
2022-08-27T14:11:32.174Z,42.81
2022-08-27T14:14:01.742Z,43.92
2022-08-27T14:16:40.754Z,43.33
2022-08-27T14:19:14.989Z,42.91
2022-08-27T14:21:44.836Z,42.76
2022-08-27T14:24:14.385Z,43.60
2022-08-27T14:26:44.261Z,43.34
2022-08-27T14:29:13.998Z,43.96
2022-08-27T14:31:43.917Z,43.71
2022-08-27T14:34:13.677Z,43.65
2022-08-27T14:36:43.519Z,43.66
2022-08-27T14:39:13.274Z,43.60
2022-08-27T14:41:42.855Z,43.35
2022-08-27T14:44:14.134Z,44.17
2022-08-27T14:46:44.500Z,43.66
2022-08-27T14:49:18.598Z,43.40
2022-08-27T14:51:47.894Z,43.61
2022-08-27T14:54:17.583Z,44.45
2022-08-27T14:56:47.192Z,43.89
2022-08-27T14:59:16.893Z,44.52
2022-08-27T15:01:46.581Z,44.04
2022-08-27T15:04:16.250Z,43.54
2022-08-27T15:06:46.883Z,43.42
2022-08-27T15:09:18.110Z,44.01
2022-08-27T15:11:48.006Z,43.54
2022-08-27T15:14:28.786Z,44.43
2022-08-27T15:16:58.494Z,44.32
2022-08-27T15:19:29.745Z,44.12
2022-08-27T15:22:05.652Z,43.68
2022-08-27T15:24:38.349Z,43.55
2022-08-27T15:27:08.098Z,44.27
2022-08-27T15:29:37.920Z,44.39
2022-08-27T15:32:07.966Z,44.36
2022-08-27T15:34:37.666Z,44.32
2022-08-27T15:37:07.429Z,44.45
2022-08-27T15:39:37.045Z,43.68
2022-08-27T15:42:10.214Z,44.66
2022-08-27T15:44:40.246Z,44.21
2022-08-27T15:47:09.866Z,43.88
2022-08-27T15:49:41.039Z,44.18
2022-08-27T15:52:11.670Z,44.11
2022-08-27T15:54:42.850Z,44.89
2022-08-27T15:57:12.464Z,44.60
2022-08-27T15:59:43.521Z,44.03
2022-08-27T16:02:17.658Z,43.65
2022-08-27T16:04:53.209Z,44.09
2022-08-27T16:07:25.805Z,43.54
2022-08-27T16:09:56.469Z,44.83
2022-08-27T16:12:27.219Z,44.44
2022-08-27T16:14:57.846Z,43.97
2022-08-27T16:17:27.578Z,43.64
2022-08-27T16:19:57.837Z,43.92
2022-08-27T16:22:29.139Z,44.76
2022-08-27T16:24:59.813Z,44.68
2022-08-27T16:27:29.803Z,44.47
2022-08-27T16:30:00.366Z,43.99
2022-08-27T16:32:32.774Z,43.56
2022-08-27T16:35:02.863Z,43.51
2022-08-27T16:37:32.369Z,44.37
2022-08-27T16:40:02.266Z,44.53
2022-08-27T16:42:32.191Z,44.37
2022-08-27T16:45:02.576Z,44.30
2022-08-27T16:47:32.085Z,44.10
2022-08-27T16:50:24.153Z,43.88
2022-08-27T16:52:55.438Z,44.77
2022-08-27T16:55:25.638Z,44.00
2022-08-27T16:57:55.806Z,43.55
2022-08-27T17:00:26.500Z,43.48
2022-08-27T17:04:08.174Z,44.63
2022-08-27T17:05:38.800Z,44.86
2022-08-27T17:08:09.536Z,44.68
2022-08-27T17:10:45.956Z,44.32
2022-08-27T17:13:17.559Z,44.03
2022-08-27T17:16:18.569Z,44.23
2022-08-27T17:18:44.126Z,43.93
2022-08-27T17:21:14.077Z,44.59
2022-08-27T17:23:45.182Z,44.33
2022-08-27T17:26:15.411Z,44.08
2022-08-27T17:28:45.064Z,44.65
2022-08-27T17:31:16.937Z,44.23
2022-08-27T17:33:50.130Z,45.40
2022-08-27T17:36:23.058Z,45.31
2022-08-27T17:38:54.623Z,44.79
2022-08-27T17:41:33.653Z,44.41
2022-08-27T17:44:03.143Z,44.52
2022-08-27T17:46:37.058Z,44.19
2022-08-27T17:49:06.578Z,44.83
2022-08-27T17:51:36.903Z,44.30
2022-08-27T17:54:06.666Z,43.86
2022-08-27T17:56:37.933Z,43.43
2022-08-27T17:59:10.607Z,43.79
2022-08-27T18:01:41.763Z,44.81
2022-08-27T18:04:11.616Z,44.75
2022-08-27T18:06:41.306Z,44.58
2022-08-27T18:09:14.726Z,44.37
2022-08-27T18:11:45.115Z,44.48
2022-08-27T18:14:18.221Z,44.23
2022-08-27T18:16:46.578Z,44.69
2022-08-27T18:19:16.149Z,44.05
2022-08-27T18:21:46.867Z,43.79
2022-08-27T18:24:17.281Z,43.36
2022-08-27T18:26:47.450Z,43.59
2022-08-27T18:29:19.104Z,43.82
2022-08-27T18:31:48.694Z,43.77
2022-08-27T18:34:21.158Z,43.37
2022-08-27T18:36:50.984Z,43.04
2022-08-27T18:39:21.391Z,43.07
2022-08-27T18:41:52.525Z,43.65
2022-08-27T18:44:22.091Z,44.23
2022-08-27T18:46:52.299Z,44.11
2022-08-27T18:49:22.924Z,44.01
2022-08-27T18:51:52.842Z,43.49
2022-08-27T18:54:22.792Z,43.87
2022-08-27T18:56:52.596Z,43.80
2022-08-27T18:59:23.738Z,44.02
2022-08-27T19:01:53.871Z,43.58
2022-08-27T19:04:23.533Z,43.39
2022-08-27T19:06:53.279Z,43.06
2022-08-27T19:09:22.838Z,43.36
2022-08-27T19:11:52.631Z,43.42
2022-08-27T19:14:22.396Z,43.47
2022-08-27T19:16:53.847Z,43.22
2022-08-27T19:19:23.858Z,43.06
2022-08-27T19:21:53.415Z,43.17
2022-08-27T19:24:23.542Z,43.21
2022-08-27T19:26:54.065Z,43.25
2022-08-27T19:29:25.888Z,43.01
2022-08-27T19:31:55.748Z,42.76
2022-08-27T19:34:25.899Z,42.46
2022-08-27T19:36:55.767Z,43.21
2022-08-27T19:39:25.807Z,43.21
2022-08-27T19:41:55.885Z,43.02
2022-08-27T19:44:25.764Z,42.95
2022-08-27T19:46:59.875Z,42.94
2022-08-27T19:49:30.115Z,43.38
2022-08-27T19:52:00.361Z,43.29
2022-08-27T19:54:33.631Z,43.58
2022-08-27T19:57:02.662Z,43.89
2022-08-27T19:59:32.363Z,43.30
2022-08-27T20:02:03.081Z,42.84
2022-08-27T20:04:37.277Z,43.32
2022-08-27T20:07:04.536Z,43.32
2022-08-27T20:09:34.375Z,43.04
2022-08-27T20:12:04.088Z,42.88
2022-08-27T20:14:33.716Z,42.66
2022-08-27T20:17:05.284Z,42.35
2022-08-27T20:19:36.536Z,42.88
2022-08-27T20:22:07.299Z,42.83
2022-08-27T20:24:38.004Z,42.72
2022-08-27T20:27:08.965Z,42.53
2022-08-27T20:29:38.587Z,42.31
2022-08-27T20:32:08.495Z,42.56
2022-08-27T20:34:38.165Z,42.55
2022-08-27T20:37:07.901Z,42.69
2022-08-27T20:39:38.010Z,42.58
2022-08-27T20:42:10.963Z,42.51
2022-08-27T20:44:40.517Z,42.64
2022-08-27T20:47:10.353Z,43.16
2022-08-27T20:49:41.428Z,43.08
2022-08-27T20:52:11.723Z,43.51
2022-08-27T20:54:41.537Z,43.21
2022-08-27T20:57:11.144Z,42.92
2022-08-27T20:59:54.268Z,43.06
2022-08-27T21:02:28.349Z,43.06
2022-08-27T21:04:58.208Z,43.17
2022-08-27T21:07:28.359Z,42.90
2022-08-27T21:09:58.045Z,42.59
2022-08-27T21:12:28.874Z,42.27
2022-08-27T21:14:59.270Z,42.99
2022-08-27T21:17:29.943Z,43.62
2022-08-27T21:20:00.262Z,43.69
2022-08-27T21:22:30.743Z,43.37
2022-08-27T21:25:00.243Z,43.08
2022-08-27T21:27:30.556Z,42.82
2022-08-27T21:30:01.444Z,42.84
2022-08-27T21:32:51.768Z,43.04
2022-08-27T21:35:21.408Z,42.93
2022-08-27T21:37:51.095Z,42.63
2022-08-27T21:40:20.957Z,42.33
2022-08-27T21:42:54.313Z,42.21
2022-08-27T21:45:52.446Z,42.21
2022-08-27T21:48:22.289Z,42.52
2022-08-27T21:50:59.185Z,42.31
2022-08-27T21:53:30.872Z,42.32
2022-08-27T21:56:00.481Z,42.68
2022-08-27T21:58:30.304Z,42.56
2022-08-27T22:01:01.697Z,43.50
2022-08-27T22:03:31.287Z,43.21
2022-08-27T22:06:00.789Z,42.95
2022-08-27T22:08:30.364Z,42.47
2022-08-27T22:11:00.641Z,42.69
2022-08-27T22:13:30.606Z,42.75
2022-08-27T22:16:00.860Z,42.52
2022-08-27T22:18:30.400Z,42.29
2022-08-27T22:21:00.562Z,42.13
2022-08-27T22:23:30.373Z,41.88
2022-08-27T22:26:18.090Z,42.18
2022-08-27T22:28:47.818Z,42.57
2022-08-27T22:31:28.360Z,42.73
2022-08-27T22:33:48.936Z,42.79
2022-08-27T22:36:18.495Z,42.52
2022-08-27T22:38:48.170Z,42.64
2022-08-27T22:41:19.178Z,42.56
2022-08-27T22:43:50.297Z,42.53
2022-08-27T22:46:22.084Z,42.36
2022-08-27T22:48:51.771Z,42.20
2022-08-27T22:51:21.393Z,41.92
2022-08-27T22:53:50.945Z,42.03
2022-08-27T22:56:20.570Z,41.91
2022-08-27T22:58:50.190Z,42.14
2022-08-27T23:01:24.111Z,42.01
2022-08-27T23:03:53.976Z,41.39
2022-08-27T23:06:23.605Z,41.80
2022-08-27T23:08:53.818Z,41.89
2022-08-27T23:11:23.357Z,41.74
2022-08-27T23:13:52.870Z,41.66
2022-08-27T23:16:22.520Z,41.20
2022-08-27T23:18:52.150Z,41.67
2022-08-27T23:21:23.479Z,41.96
2022-08-27T23:23:53.143Z,41.90
2022-08-27T23:26:43.405Z,41.75
2022-08-27T23:29:13.050Z,42.02
2022-08-27T23:31:42.727Z,41.80
2022-08-27T23:34:12.291Z,41.63
2022-08-27T23:36:41.992Z,41.80
2022-08-27T23:39:11.601Z,41.54
2022-08-27T23:41:41.874Z,41.46
2022-08-27T23:44:12.362Z,41.46
2022-08-27T23:46:42.125Z,41.34
2022-08-27T23:49:12.901Z,41.34
2022-08-27T23:51:42.688Z,41.22
2022-08-27T23:54:12.607Z,41.35
2022-08-27T23:56:42.214Z,41.29
2022-08-27T23:59:11.735Z,41.27
